SWA1100 KTPA-KLAS
Flight info
| Callsign | SWA1100 |
|---|---|
| Flight time | 4h 38m |
| Altitude | 36000 |
| Route | DORMR3 FROOT ROZZI Y280 REDFN BOWFN SBIRD FFSSH MARCS LEJON FST EWM KA15S KA21Q KA27O DRK ELLDA RKSTR4 |
| Aircraft | B737/M-SDE2E3FGHIRWXY/LB1 |
Departure
| Time | 2026-05-06 19:08 |
|---|---|
| Airport | Tampa International Airport (KTPA) |
Arrival
| Time | 2026-05-06 23:47 |
|---|---|
| Airport | Harry Reid International Airport (KLAS) |
| Time | Latitude | Longitude | Altitude | Speed | Heading |
|---|---|---|---|---|---|
| 2026-05-06 18:40 | 27.98168 | -82.53161 | 33 ft | 0 kts | 343° |
| 2026-05-06 18:56 | 27.98163 | -82.53159 | 33 ft | 2 kts | 343° |
| 2026-05-06 18:56 | 27.98148 | -82.53154 | 31 ft | 2 kts | 344° |
| 2026-05-06 18:56 | 27.98132 | -82.53149 | 31 ft | 2 kts | 346° |
| 2026-05-06 18:57 | 27.98116 | -82.53148 | 31 ft | 2 kts | 18° |
| 2026-05-06 18:57 | 27.98101 | -82.53154 | 31 ft | 2 kts | 39° |
| 2026-05-06 18:57 | 27.98093 | -82.53168 | 33 ft | 0 kts | 85° |
| 2026-05-06 18:59 | 27.98093 | -82.53167 | 33 ft | 1 kts | 85° |
| 2026-05-06 19:00 | 27.98094 | -82.53152 | 33 ft | 3 kts | 85° |
| 2026-05-06 19:00 | 27.98095 | -82.53114 | 35 ft | 6 kts | 92° |
| 2026-05-06 19:00 | 27.98100 | -82.53054 | 33 ft | 9 kts | 74° |
| 2026-05-06 19:00 | 27.98112 | -82.53007 | 33 ft | 10 kts | 75° |
| 2026-05-06 19:01 | 27.98195 | -82.52963 | 31 ft | 13 kts | 359° |
| 2026-05-06 19:01 | 27.98298 | -82.52962 | 30 ft | 16 kts | 1° |
| 2026-05-06 19:01 | 27.98410 | -82.52958 | 31 ft | 16 kts | 2° |
| 2026-05-06 19:01 | 27.98497 | -82.53026 | 31 ft | 15 kts | 317° |
| 2026-05-06 19:02 | 27.98553 | -82.53125 | 30 ft | 15 kts | 292° |
| 2026-05-06 19:02 | 27.98562 | -82.53236 | 31 ft | 14 kts | 272° |
| 2026-05-06 19:02 | 27.98566 | -82.53345 | 32 ft | 13 kts | 271° |
| 2026-05-06 19:02 | 27.98568 | -82.53448 | 32 ft | 13 kts | 270° |
| 2026-05-06 19:03 | 27.98570 | -82.53551 | 29 ft | 13 kts | 271° |
| 2026-05-06 19:03 | 27.98573 | -82.53652 | 28 ft | 13 kts | 272° |
| 2026-05-06 19:03 | 27.98576 | -82.53753 | 28 ft | 12 kts | 272° |
| 2026-05-06 19:03 | 27.98579 | -82.53849 | 30 ft | 12 kts | 271° |
| 2026-05-06 19:04 | 27.98600 | -82.53937 | 29 ft | 12 kts | 319° |
| 2026-05-06 19:04 | 27.98678 | -82.53955 | 29 ft | 12 kts | 358° |
| 2026-05-06 19:04 | 27.98758 | -82.53952 | 28 ft | 11 kts | 2° |
| 2026-05-06 19:04 | 27.98835 | -82.53948 | 29 ft | 11 kts | 2° |
| 2026-05-06 19:05 | 27.98910 | -82.53945 | 29 ft | 11 kts | 2° |
| 2026-05-06 19:05 | 27.98983 | -82.53943 | 29 ft | 10 kts | 1° |
| 2026-05-06 19:05 | 27.99053 | -82.53940 | 28 ft | 10 kts | 1° |
| 2026-05-06 19:05 | 27.99122 | -82.53939 | 30 ft | 10 kts | 359° |
| 2026-05-06 19:06 | 27.99189 | -82.53939 | 26 ft | 9 kts | 1° |
| 2026-05-06 19:06 | 27.99252 | -82.53954 | 26 ft | 9 kts | 328° |
| 2026-05-06 19:06 | 27.99275 | -82.54015 | 25 ft | 9 kts | 263° |
| 2026-05-06 19:06 | 27.99266 | -82.54087 | 25 ft | 9 kts | 260° |
| 2026-05-06 19:07 | 27.99227 | -82.54136 | 27 ft | 9 kts | 192° |
| 2026-05-06 19:07 | 27.99212 | -82.54138 | 26 ft | 0 kts | 182° |
| 2026-05-06 19:07 | 27.99182 | -82.54140 | 26 ft | 26 kts | 182° |
| 2026-05-06 19:07 | 27.98720 | -82.54155 | 32 ft | 104 kts | 181° |
| 2026-05-06 19:08 | 27.97771 | -82.54194 | 56 ft | 164 kts | 184° |
| 2026-05-06 19:08 | 27.96552 | -82.54229 | 669 ft | 184 kts | 183° |
| 2026-05-06 19:08 | 27.95300 | -82.54314 | 1827 ft | 171 kts | 194° |
| 2026-05-06 19:08 | 27.94151 | -82.54689 | 2817 ft | 180 kts | 195° |
| 2026-05-06 19:09 | 27.92854 | -82.55114 | 3147 ft | 211 kts | 195° |
| 2026-05-06 19:09 | 27.91338 | -82.55621 | 3443 ft | 241 kts | 195° |
| 2026-05-06 19:09 | 27.89648 | -82.56187 | 3914 ft | 264 kts | 196° |
| 2026-05-06 19:09 | 27.88072 | -82.57271 | 4702 ft | 274 kts | 229° |
| 2026-05-06 19:10 | 27.87383 | -82.58483 | 5338 ft | 276 kts | 241° |
| 2026-05-06 19:10 | 27.86208 | -82.61112 | 6449 ft | 285 kts | 243° |
| 2026-05-06 19:10 | 27.85623 | -82.62456 | 7034 ft | 286 kts | 244° |
| 2026-05-06 19:10 | 27.84738 | -82.64481 | 7909 ft | 288 kts | 244° |
| 2026-05-06 19:11 | 27.83837 | -82.66529 | 8762 ft | 292 kts | 244° |
| 2026-05-06 19:11 | 27.82921 | -82.68595 | 9620 ft | 294 kts | 244° |
| 2026-05-06 19:11 | 27.82001 | -82.70659 | 10339 ft | 300 kts | 244° |
| 2026-05-06 19:11 | 27.81017 | -82.72857 | 10587 ft | 325 kts | 244° |
| 2026-05-06 19:12 | 27.79957 | -82.75219 | 10776 ft | 348 kts | 244° |
| 2026-05-06 19:12 | 27.78833 | -82.77715 | 10938 ft | 370 kts | 244° |
| 2026-05-06 19:12 | 27.77638 | -82.80361 | 11335 ft | 382 kts | 244° |
| 2026-05-06 19:12 | 27.76418 | -82.83057 | 11943 ft | 387 kts | 244° |
| 2026-05-06 19:13 | 27.75201 | -82.85743 | 12603 ft | 389 kts | 244° |
| 2026-05-06 19:13 | 27.73955 | -82.88492 | 13242 ft | 393 kts | 244° |
| 2026-05-06 19:13 | 27.72701 | -82.91258 | 13864 ft | 396 kts | 245° |
| 2026-05-06 19:13 | 27.71439 | -82.94040 | 14437 ft | 398 kts | 245° |
| 2026-05-06 19:14 | 27.70189 | -82.96794 | 15026 ft | 399 kts | 245° |
| 2026-05-06 19:14 | 27.68914 | -82.99603 | 15604 ft | 401 kts | 245° |
| 2026-05-06 19:14 | 27.67639 | -83.02420 | 16129 ft | 403 kts | 246° |
| 2026-05-06 19:14 | 27.66620 | -83.05379 | 16642 ft | 403 kts | 255° |
| 2026-05-06 19:15 | 27.66055 | -83.08444 | 17169 ft | 403 kts | 265° |
| 2026-05-06 19:15 | 27.65772 | -83.11605 | 17689 ft | 404 kts | 266° |
| 2026-05-06 19:15 | 27.65520 | -83.14779 | 18164 ft | 407 kts | 266° |
| 2026-05-06 19:15 | 27.65262 | -83.17954 | 18595 ft | 410 kts | 266° |
| 2026-05-06 19:16 | 27.64980 | -83.21170 | 19038 ft | 410 kts | 265° |
| 2026-05-06 19:16 | 27.64689 | -83.24338 | 19519 ft | 410 kts | 265° |
| 2026-05-06 19:16 | 27.64390 | -83.27544 | 19977 ft | 410 kts | 265° |
| 2026-05-06 19:16 | 27.64089 | -83.30754 | 20396 ft | 411 kts | 265° |
| 2026-05-06 19:17 | 27.63790 | -83.33939 | 20809 ft | 412 kts | 265° |
| 2026-05-06 19:17 | 27.63486 | -83.37168 | 21223 ft | 413 kts | 265° |
| 2026-05-06 19:17 | 27.63181 | -83.40410 | 21634 ft | 414 kts | 265° |
| 2026-05-06 19:17 | 27.62879 | -83.43612 | 22023 ft | 415 kts | 265° |
| 2026-05-06 19:18 | 27.62571 | -83.46871 | 22413 ft | 416 kts | 265° |
| 2026-05-06 19:18 | 27.62263 | -83.50123 | 22784 ft | 417 kts | 265° |
| 2026-05-06 19:18 | 27.61958 | -83.53341 | 23144 ft | 418 kts | 265° |
| 2026-05-06 19:18 | 27.61646 | -83.56620 | 23496 ft | 419 kts | 265° |
| 2026-05-06 19:19 | 27.61332 | -83.59909 | 23796 ft | 420 kts | 265° |
| 2026-05-06 19:19 | 27.61021 | -83.63159 | 24047 ft | 422 kts | 265° |
| 2026-05-06 19:19 | 27.60702 | -83.66491 | 23994 ft | 427 kts | 265° |
| 2026-05-06 19:19 | 27.60386 | -83.69769 | 23987 ft | 423 kts | 265° |
| 2026-05-06 19:20 | 27.60069 | -83.73058 | 23981 ft | 420 kts | 265° |
| 2026-05-06 19:20 | 27.59753 | -83.76319 | 23987 ft | 421 kts | 265° |
| 2026-05-06 19:20 | 27.59434 | -83.79619 | 23986 ft | 421 kts | 265° |
| 2026-05-06 19:20 | 27.59117 | -83.82878 | 23984 ft | 422 kts | 265° |
| 2026-05-06 19:21 | 27.58795 | -83.86192 | 23980 ft | 422 kts | 265° |
| 2026-05-06 19:21 | 27.58473 | -83.89495 | 23975 ft | 422 kts | 265° |
| 2026-05-06 19:21 | 27.58154 | -83.92753 | 23976 ft | 422 kts | 265° |
| 2026-05-06 19:21 | 27.57829 | -83.96063 | 23976 ft | 422 kts | 265° |
| 2026-05-06 19:22 | 27.57509 | -83.99327 | 23976 ft | 422 kts | 265° |
| 2026-05-06 19:22 | 27.57183 | -84.02626 | 23977 ft | 422 kts | 265° |
| 2026-05-06 19:22 | 27.56857 | -84.05935 | 23976 ft | 422 kts | 265° |
| 2026-05-06 19:22 | 27.56532 | -84.09218 | 24020 ft | 425 kts | 265° |
| 2026-05-06 19:23 | 27.56202 | -84.12545 | 24308 ft | 425 kts | 265° |
| 2026-05-06 19:23 | 27.55990 | -84.15827 | 24620 ft | 424 kts | 271° |
| 2026-05-06 19:23 | 27.56161 | -84.19160 | 24894 ft | 424 kts | 279° |
| 2026-05-06 19:23 | 27.56677 | -84.22404 | 25131 ft | 425 kts | 281° |
| 2026-05-06 19:24 | 27.57235 | -84.25696 | 25360 ft | 427 kts | 281° |
| 2026-05-06 19:24 | 27.57792 | -84.28971 | 25588 ft | 428 kts | 281° |
| 2026-05-06 19:24 | 27.58351 | -84.32292 | 25828 ft | 429 kts | 281° |
| 2026-05-06 19:24 | 27.58901 | -84.35613 | 26069 ft | 430 kts | 280° |
| 2026-05-06 19:25 | 27.59446 | -84.38941 | 26298 ft | 432 kts | 280° |
| 2026-05-06 19:25 | 27.59982 | -84.42241 | 26523 ft | 433 kts | 280° |
| 2026-05-06 19:25 | 27.60524 | -84.45596 | 26757 ft | 434 kts | 280° |
| 2026-05-06 19:25 | 27.61059 | -84.48921 | 26959 ft | 435 kts | 280° |
| 2026-05-06 19:26 | 27.61600 | -84.52284 | 27181 ft | 436 kts | 280° |
| 2026-05-06 19:26 | 27.62142 | -84.55668 | 27383 ft | 437 kts | 280° |
| 2026-05-06 19:26 | 27.62685 | -84.59057 | 27578 ft | 438 kts | 280° |
| 2026-05-06 19:26 | 27.63222 | -84.62410 | 27786 ft | 439 kts | 280° |
| 2026-05-06 19:27 | 27.63767 | -84.65824 | 27988 ft | 440 kts | 280° |
| 2026-05-06 19:27 | 27.64311 | -84.69237 | 28242 ft | 440 kts | 280° |
| 2026-05-06 19:27 | 27.64847 | -84.72600 | 28541 ft | 439 kts | 280° |
| 2026-05-06 19:27 | 27.65386 | -84.75988 | 28884 ft | 437 kts | 280° |
| 2026-05-06 19:28 | 27.65923 | -84.79372 | 29227 ft | 435 kts | 280° |
| 2026-05-06 19:28 | 27.66456 | -84.82734 | 29539 ft | 435 kts | 280° |
| 2026-05-06 19:28 | 27.66980 | -84.86048 | 29864 ft | 434 kts | 279° |
| 2026-05-06 19:28 | 27.67509 | -84.89399 | 30223 ft | 432 kts | 279° |
| 2026-05-06 19:29 | 27.68036 | -84.92740 | 30540 ft | 430 kts | 279° |
| 2026-05-06 19:29 | 27.68561 | -84.96073 | 30854 ft | 429 kts | 279° |
| 2026-05-06 19:29 | 27.69076 | -84.99353 | 31154 ft | 428 kts | 279° |
| 2026-05-06 19:29 | 27.69595 | -85.02657 | 31474 ft | 427 kts | 279° |
| 2026-05-06 19:30 | 27.70115 | -85.05974 | 31801 ft | 426 kts | 279° |
| 2026-05-06 19:30 | 27.70624 | -85.09232 | 32122 ft | 424 kts | 279° |
| 2026-05-06 19:30 | 27.71138 | -85.12518 | 32455 ft | 423 kts | 279° |
| 2026-05-06 19:30 | 27.71644 | -85.15764 | 32779 ft | 422 kts | 279° |
| 2026-05-06 19:31 | 27.72153 | -85.19039 | 33124 ft | 421 kts | 279° |
| 2026-05-06 19:31 | 27.72661 | -85.22304 | 33465 ft | 420 kts | 279° |
| 2026-05-06 19:31 | 27.73706 | -85.28773 | 34100 ft | 418 kts | 283° |
| 2026-05-06 19:32 | 27.74535 | -85.31879 | 34355 ft | 418 kts | 290° |
| 2026-05-06 19:32 | 27.75740 | -85.34900 | 34590 ft | 419 kts | 293° |
| 2026-05-06 19:32 | 27.76990 | -85.37852 | 34835 ft | 418 kts | 294° |
| 2026-05-06 19:32 | 27.78237 | -85.40785 | 35061 ft | 418 kts | 294° |
| 2026-05-06 19:33 | 27.79499 | -85.43767 | 35295 ft | 417 kts | 293° |
| 2026-05-06 19:33 | 27.80736 | -85.46704 | 35526 ft | 417 kts | 293° |
| 2026-05-06 19:33 | 27.81982 | -85.49678 | 35757 ft | 416 kts | 293° |
| 2026-05-06 19:33 | 27.83215 | -85.52634 | 35972 ft | 416 kts | 293° |
| 2026-05-06 19:34 | 27.85671 | -85.58543 | 36057 ft | 418 kts | 293° |
| 2026-05-06 19:34 | 27.88140 | -85.64494 | 36054 ft | 415 kts | 293° |
| 2026-05-06 19:35 | 27.90566 | -85.70351 | 36059 ft | 412 kts | 293° |
| 2026-05-06 19:35 | 27.92982 | -85.76192 | 36061 ft | 409 kts | 293° |
| 2026-05-06 19:36 | 27.95399 | -85.82043 | 36062 ft | 408 kts | 293° |
| 2026-05-06 19:36 | 27.97794 | -85.87852 | 36064 ft | 409 kts | 293° |
| 2026-05-06 19:37 | 28.00194 | -85.93681 | 36066 ft | 410 kts | 292° |
| 2026-05-06 19:37 | 28.02204 | -85.98566 | 36066 ft | 412 kts | 293° |
| 2026-05-06 19:38 | 28.05030 | -86.05448 | 36060 ft | 414 kts | 292° |
| 2026-05-06 19:38 | 28.07468 | -86.11395 | 36058 ft | 416 kts | 292° |
| 2026-05-06 19:39 | 28.09896 | -86.17325 | 36054 ft | 417 kts | 292° |
| 2026-05-06 19:39 | 28.12329 | -86.23276 | 36052 ft | 417 kts | 292° |
| 2026-05-06 19:40 | 28.14769 | -86.29256 | 36055 ft | 417 kts | 292° |
| 2026-05-06 19:40 | 28.17193 | -86.35201 | 36050 ft | 416 kts | 292° |
| 2026-05-06 19:41 | 28.19609 | -86.41140 | 36051 ft | 415 kts | 292° |
| 2026-05-06 19:41 | 28.22027 | -86.47090 | 36058 ft | 414 kts | 292° |
| 2026-05-06 19:42 | 28.24421 | -86.52993 | 36049 ft | 412 kts | 292° |
| 2026-05-06 19:42 | 28.26808 | -86.58887 | 36049 ft | 411 kts | 292° |
| 2026-05-06 19:43 | 28.29200 | -86.64800 | 36051 ft | 411 kts | 292° |
| 2026-05-06 19:43 | 28.31554 | -86.70692 | 36048 ft | 409 kts | 289° |
| 2026-05-06 19:44 | 28.33394 | -86.76765 | 36045 ft | 408 kts | 287° |
| 2026-05-06 19:44 | 28.35162 | -86.82907 | 36048 ft | 408 kts | 286° |
| 2026-05-06 19:45 | 28.36921 | -86.88993 | 36049 ft | 408 kts | 287° |
| 2026-05-06 19:45 | 28.38705 | -86.95132 | 36048 ft | 408 kts | 287° |
| 2026-05-06 19:46 | 28.40478 | -87.01229 | 36045 ft | 408 kts | 287° |
| 2026-05-06 19:46 | 28.42262 | -87.07370 | 36047 ft | 409 kts | 287° |
| 2026-05-06 19:47 | 28.44040 | -87.13499 | 36033 ft | 409 kts | 286° |
| 2026-05-06 19:47 | 28.45807 | -87.19606 | 36036 ft | 409 kts | 286° |
| 2026-05-06 19:48 | 28.47590 | -87.25777 | 36033 ft | 409 kts | 286° |
| 2026-05-06 19:48 | 28.49357 | -87.31907 | 36039 ft | 409 kts | 286° |
| 2026-05-06 19:49 | 28.51124 | -87.38047 | 36031 ft | 408 kts | 286° |
| 2026-05-06 19:49 | 28.52885 | -87.44179 | 36031 ft | 408 kts | 286° |
| 2026-05-06 19:50 | 28.54643 | -87.50310 | 36032 ft | 408 kts | 286° |
| 2026-05-06 19:50 | 28.56397 | -87.56442 | 36032 ft | 408 kts | 286° |
| 2026-05-06 19:51 | 28.58151 | -87.62585 | 36021 ft | 408 kts | 286° |
| 2026-05-06 19:51 | 28.59895 | -87.68704 | 36027 ft | 408 kts | 286° |
| 2026-05-06 19:52 | 28.61647 | -87.74862 | 36017 ft | 408 kts | 286° |
| 2026-05-06 19:52 | 28.63387 | -87.80988 | 36026 ft | 408 kts | 286° |
| 2026-05-06 19:53 | 28.65123 | -87.87114 | 36025 ft | 408 kts | 286° |
| 2026-05-06 19:53 | 28.66859 | -87.93254 | 36015 ft | 408 kts | 285° |
| 2026-05-06 19:54 | 28.68593 | -87.99395 | 36020 ft | 408 kts | 285° |
| 2026-05-06 19:54 | 28.70325 | -88.05543 | 36019 ft | 408 kts | 285° |
| 2026-05-06 19:55 | 28.71770 | -88.10680 | 36012 ft | 408 kts | 285° |
| 2026-05-06 19:55 | 28.73494 | -88.16835 | 36010 ft | 408 kts | 285° |
| 2026-05-06 19:56 | 28.75212 | -88.22981 | 36008 ft | 408 kts | 285° |
| 2026-05-06 19:56 | 28.76934 | -88.29152 | 36009 ft | 408 kts | 285° |
| 2026-05-06 19:57 | 28.78653 | -88.35327 | 36007 ft | 408 kts | 285° |
| 2026-05-06 19:57 | 28.80365 | -88.41487 | 36007 ft | 408 kts | 285° |
| 2026-05-06 19:58 | 28.82075 | -88.47652 | 36004 ft | 408 kts | 285° |
| 2026-05-06 19:58 | 28.83782 | -88.53817 | 36005 ft | 408 kts | 285° |
| 2026-05-06 19:59 | 28.85484 | -88.59977 | 36006 ft | 407 kts | 285° |
| 2026-05-06 19:59 | 28.87183 | -88.66137 | 36001 ft | 407 kts | 285° |
| 2026-05-06 20:00 | 28.88467 | -88.72398 | 35997 ft | 404 kts | 273° |
| 2026-05-06 20:00 | 28.88776 | -88.78766 | 35998 ft | 404 kts | 272° |
| 2026-05-06 20:01 | 28.89074 | -88.85204 | 36000 ft | 404 kts | 272° |
| 2026-05-06 20:01 | 28.89381 | -88.91567 | 35999 ft | 404 kts | 272° |
| 2026-05-06 20:02 | 28.89696 | -88.97999 | 35995 ft | 404 kts | 272° |
| 2026-05-06 20:02 | 28.90010 | -89.04396 | 35992 ft | 404 kts | 272° |
| 2026-05-06 20:03 | 28.90320 | -89.10768 | 35993 ft | 404 kts | 272° |
| 2026-05-06 20:03 | 28.90629 | -89.17196 | 35995 ft | 405 kts | 272° |
| 2026-05-06 20:04 | 28.90934 | -89.23593 | 35990 ft | 405 kts | 272° |
| 2026-05-06 20:04 | 28.91236 | -89.30001 | 35986 ft | 405 kts | 272° |
| 2026-05-06 20:05 | 28.91537 | -89.36447 | 35987 ft | 405 kts | 272° |
| 2026-05-06 20:05 | 28.91832 | -89.42845 | 35982 ft | 405 kts | 272° |
| 2026-05-06 20:06 | 28.92126 | -89.49273 | 35984 ft | 404 kts | 271° |
| 2026-05-06 20:06 | 28.92415 | -89.55658 | 35978 ft | 404 kts | 271° |
| 2026-05-06 20:07 | 28.92703 | -89.62091 | 35978 ft | 404 kts | 271° |
| 2026-05-06 20:07 | 28.92986 | -89.68478 | 35980 ft | 404 kts | 271° |
| 2026-05-06 20:08 | 28.93266 | -89.74869 | 35977 ft | 404 kts | 271° |
| 2026-05-06 20:08 | 28.93543 | -89.81257 | 35973 ft | 404 kts | 271° |
| 2026-05-06 20:09 | 28.93817 | -89.87651 | 35973 ft | 403 kts | 271° |
| 2026-05-06 20:09 | 28.94088 | -89.94047 | 35972 ft | 403 kts | 271° |
| 2026-05-06 20:10 | 28.94357 | -90.00468 | 35971 ft | 403 kts | 271° |
| 2026-05-06 20:10 | 28.94621 | -90.06838 | 35970 ft | 403 kts | 271° |
| 2026-05-06 20:11 | 28.94882 | -90.13212 | 35970 ft | 403 kts | 271° |
| 2026-05-06 20:11 | 28.95141 | -90.19597 | 35969 ft | 403 kts | 271° |
| 2026-05-06 20:12 | 28.95396 | -90.25972 | 35965 ft | 402 kts | 271° |
| 2026-05-06 20:12 | 28.95649 | -90.32386 | 35962 ft | 402 kts | 271° |
| 2026-05-06 20:13 | 28.95898 | -90.38761 | 35959 ft | 402 kts | 271° |
| 2026-05-06 20:13 | 28.96144 | -90.45120 | 35956 ft | 402 kts | 271° |
| 2026-05-06 20:14 | 28.96386 | -90.51485 | 35955 ft | 402 kts | 271° |
| 2026-05-06 20:14 | 28.96626 | -90.57845 | 35953 ft | 401 kts | 271° |
| 2026-05-06 20:15 | 28.96862 | -90.64208 | 35951 ft | 401 kts | 271° |
| 2026-05-06 20:15 | 28.97097 | -90.70601 | 35948 ft | 401 kts | 271° |
| 2026-05-06 20:16 | 28.97327 | -90.76944 | 35948 ft | 401 kts | 271° |
| 2026-05-06 20:16 | 28.97554 | -90.83302 | 35948 ft | 401 kts | 270° |
| 2026-05-06 20:17 | 28.97778 | -90.89658 | 35946 ft | 401 kts | 270° |
| 2026-05-06 20:17 | 28.97999 | -90.96009 | 35944 ft | 401 kts | 270° |
| 2026-05-06 20:18 | 28.98218 | -91.02383 | 35943 ft | 400 kts | 270° |
| 2026-05-06 20:18 | 28.98433 | -91.08703 | 35940 ft | 400 kts | 270° |
| 2026-05-06 20:19 | 28.98646 | -91.15087 | 35938 ft | 400 kts | 270° |
| 2026-05-06 20:19 | 28.98855 | -91.21423 | 35936 ft | 400 kts | 270° |
| 2026-05-06 20:20 | 28.99002 | -91.27752 | 35932 ft | 400 kts | 269° |
| 2026-05-06 20:20 | 28.99070 | -91.34134 | 35928 ft | 400 kts | 269° |
| 2026-05-06 20:21 | 28.99134 | -91.40469 | 35931 ft | 399 kts | 269° |
| 2026-05-06 20:21 | 28.99204 | -91.46797 | 35927 ft | 399 kts | 269° |
| 2026-05-06 20:22 | 28.99275 | -91.53135 | 35923 ft | 399 kts | 269° |
| 2026-05-06 20:22 | 28.99345 | -91.59481 | 35920 ft | 399 kts | 269° |
| 2026-05-06 20:23 | 28.99412 | -91.65820 | 35921 ft | 399 kts | 269° |
| 2026-05-06 20:23 | 28.99476 | -91.72145 | 35919 ft | 399 kts | 269° |
| 2026-05-06 20:24 | 28.99538 | -91.78506 | 35919 ft | 399 kts | 269° |
| 2026-05-06 20:24 | 28.99596 | -91.84843 | 35911 ft | 399 kts | 269° |
| 2026-05-06 20:25 | 28.99651 | -91.91175 | 35911 ft | 399 kts | 269° |
| 2026-05-06 20:25 | 28.99704 | -91.97552 | 35911 ft | 400 kts | 269° |
| 2026-05-06 20:26 | 28.99753 | -92.03895 | 35912 ft | 400 kts | 269° |
| 2026-05-06 20:26 | 28.99799 | -92.10226 | 35910 ft | 400 kts | 269° |
| 2026-05-06 20:27 | 28.99843 | -92.16583 | 35906 ft | 400 kts | 268° |
| 2026-05-06 20:27 | 28.99883 | -92.22924 | 35907 ft | 400 kts | 268° |
| 2026-05-06 20:28 | 28.99920 | -92.29271 | 35904 ft | 400 kts | 268° |
| 2026-05-06 20:28 | 28.99955 | -92.35603 | 35905 ft | 400 kts | 268° |
| 2026-05-06 20:29 | 28.99986 | -92.41936 | 35903 ft | 400 kts | 268° |
| 2026-05-06 20:29 | 29.00014 | -92.48298 | 35902 ft | 400 kts | 268° |
| 2026-05-06 20:30 | 29.00052 | -92.57821 | 35898 ft | 400 kts | 268° |
| 2026-05-06 20:31 | 29.00072 | -92.64140 | 35899 ft | 400 kts | 268° |
| 2026-05-06 20:31 | 29.00091 | -92.70511 | 35897 ft | 400 kts | 268° |
| 2026-05-06 20:32 | 29.00106 | -92.76836 | 35895 ft | 400 kts | 268° |
| 2026-05-06 20:32 | 29.00118 | -92.83195 | 35897 ft | 400 kts | 268° |
| 2026-05-06 20:33 | 29.00127 | -92.89518 | 35897 ft | 400 kts | 268° |
| 2026-05-06 20:33 | 29.00133 | -92.95886 | 35898 ft | 400 kts | 268° |
| 2026-05-06 20:34 | 29.00136 | -93.02224 | 35890 ft | 400 kts | 268° |
| 2026-05-06 20:34 | 29.00136 | -93.08543 | 35891 ft | 399 kts | 268° |
| 2026-05-06 20:35 | 29.00133 | -93.14921 | 35896 ft | 399 kts | 268° |
| 2026-05-06 20:35 | 29.00128 | -93.21246 | 35895 ft | 399 kts | 268° |
| 2026-05-06 20:36 | 29.00119 | -93.27573 | 35890 ft | 399 kts | 268° |
| 2026-05-06 20:36 | 29.00107 | -93.33900 | 35891 ft | 399 kts | 268° |
| 2026-05-06 20:37 | 29.00093 | -93.40277 | 35893 ft | 399 kts | 268° |
| 2026-05-06 20:37 | 29.00075 | -93.46600 | 35888 ft | 398 kts | 267° |
| 2026-05-06 20:38 | 29.00055 | -93.52911 | 35885 ft | 398 kts | 267° |
| 2026-05-06 20:38 | 29.00032 | -93.59253 | 35883 ft | 398 kts | 267° |
| 2026-05-06 20:39 | 29.00063 | -93.65572 | 35881 ft | 399 kts | 271° |
| 2026-05-06 20:39 | 29.01084 | -93.71819 | 35900 ft | 403 kts | 280° |
| 2026-05-06 20:40 | 29.02265 | -93.76994 | 35888 ft | 404 kts | 280° |
| 2026-05-06 20:40 | 29.03679 | -93.83228 | 35886 ft | 403 kts | 280° |
| 2026-05-06 20:41 | 29.05070 | -93.89436 | 35884 ft | 403 kts | 280° |
| 2026-05-06 20:41 | 29.06450 | -93.95643 | 35887 ft | 403 kts | 279° |
| 2026-05-06 20:42 | 29.07821 | -94.01834 | 35885 ft | 403 kts | 279° |
| 2026-05-06 20:42 | 29.09190 | -94.08035 | 35888 ft | 402 kts | 279° |
| 2026-05-06 20:43 | 29.10563 | -94.14264 | 35882 ft | 402 kts | 279° |
| 2026-05-06 20:43 | 29.11921 | -94.20442 | 35888 ft | 402 kts | 279° |
| 2026-05-06 20:44 | 29.13275 | -94.26619 | 35894 ft | 401 kts | 279° |
| 2026-05-06 20:44 | 29.14631 | -94.32816 | 35893 ft | 401 kts | 279° |
| 2026-05-06 20:45 | 29.15980 | -94.38995 | 35894 ft | 400 kts | 279° |
| 2026-05-06 20:45 | 29.17323 | -94.45166 | 35895 ft | 400 kts | 279° |
| 2026-05-06 20:46 | 29.18670 | -94.51364 | 35893 ft | 400 kts | 279° |
| 2026-05-06 20:46 | 29.20006 | -94.57532 | 35897 ft | 399 kts | 279° |
| 2026-05-06 20:47 | 29.21337 | -94.63689 | 35905 ft | 399 kts | 279° |
| 2026-05-06 20:47 | 29.22675 | -94.69891 | 35939 ft | 401 kts | 279° |
| 2026-05-06 20:47 | 29.23337 | -94.72967 | 36161 ft | 400 kts | 279° |
| 2026-05-06 20:48 | 29.24003 | -94.76063 | 36495 ft | 397 kts | 279° |
| 2026-05-06 20:48 | 29.24660 | -94.79114 | 36772 ft | 396 kts | 279° |
| 2026-05-06 20:48 | 29.25320 | -94.82188 | 36952 ft | 396 kts | 279° |
| 2026-05-06 20:48 | 29.25970 | -94.85224 | 37108 ft | 397 kts | 279° |
| 2026-05-06 20:49 | 29.26631 | -94.88319 | 37252 ft | 398 kts | 278° |
| 2026-05-06 20:49 | 29.27291 | -94.91408 | 37454 ft | 397 kts | 278° |
| 2026-05-06 20:49 | 29.27940 | -94.94444 | 37684 ft | 396 kts | 278° |
| 2026-05-06 20:49 | 29.28593 | -94.97504 | 37875 ft | 395 kts | 278° |
| 2026-05-06 20:50 | 29.29252 | -95.00602 | 37890 ft | 398 kts | 278° |
| 2026-05-06 20:50 | 29.30551 | -95.06716 | 37903 ft | 396 kts | 278° |
| 2026-05-06 20:51 | 29.31851 | -95.12840 | 37889 ft | 394 kts | 278° |
| 2026-05-06 20:51 | 29.33136 | -95.18906 | 37887 ft | 392 kts | 278° |
| 2026-05-06 20:52 | 29.34414 | -95.24964 | 37891 ft | 390 kts | 278° |
| 2026-05-06 20:52 | 29.35686 | -95.31004 | 37891 ft | 390 kts | 278° |
| 2026-05-06 20:53 | 29.36959 | -95.37067 | 37893 ft | 390 kts | 278° |
| 2026-05-06 20:53 | 29.38227 | -95.43122 | 37891 ft | 392 kts | 278° |
| 2026-05-06 20:54 | 29.39500 | -95.49211 | 37891 ft | 393 kts | 278° |
| 2026-05-06 20:54 | 29.40772 | -95.55311 | 37890 ft | 394 kts | 278° |
| 2026-05-06 20:55 | 29.42044 | -95.61423 | 37889 ft | 394 kts | 278° |
| 2026-05-06 20:55 | 29.43316 | -95.67555 | 37887 ft | 395 kts | 278° |
| 2026-05-06 20:56 | 29.44582 | -95.73666 | 37884 ft | 395 kts | 278° |
| 2026-05-06 20:56 | 29.45851 | -95.79811 | 37879 ft | 396 kts | 278° |
| 2026-05-06 20:57 | 29.47122 | -95.85977 | 37877 ft | 395 kts | 277° |
| 2026-05-06 20:57 | 29.48381 | -95.92105 | 37873 ft | 395 kts | 277° |
| 2026-05-06 20:58 | 29.49637 | -95.98229 | 37872 ft | 395 kts | 277° |
| 2026-05-06 20:58 | 29.50891 | -96.04363 | 37871 ft | 396 kts | 277° |
| 2026-05-06 20:59 | 29.52153 | -96.10552 | 37855 ft | 396 kts | 277° |
| 2026-05-06 20:59 | 29.53396 | -96.16662 | 37868 ft | 395 kts | 277° |
| 2026-05-06 21:00 | 29.54647 | -96.22819 | 37875 ft | 394 kts | 277° |
| 2026-05-06 21:00 | 29.55884 | -96.28933 | 37888 ft | 393 kts | 277° |
| 2026-05-06 21:01 | 29.57112 | -96.35013 | 37878 ft | 392 kts | 277° |
| 2026-05-06 21:01 | 29.58344 | -96.41131 | 37884 ft | 391 kts | 277° |
| 2026-05-06 21:02 | 29.59564 | -96.47201 | 37868 ft | 391 kts | 277° |
| 2026-05-06 21:02 | 29.60779 | -96.53266 | 37844 ft | 390 kts | 277° |
| 2026-05-06 21:03 | 29.62000 | -96.59373 | 37821 ft | 390 kts | 277° |
| 2026-05-06 21:03 | 29.63212 | -96.65453 | 37797 ft | 390 kts | 277° |
| 2026-05-06 21:04 | 29.64419 | -96.71521 | 37786 ft | 390 kts | 276° |
| 2026-05-06 21:04 | 29.65627 | -96.77606 | 37781 ft | 390 kts | 276° |
| 2026-05-06 21:05 | 29.66885 | -96.83679 | 37788 ft | 391 kts | 278° |
| 2026-05-06 21:05 | 29.68272 | -96.89711 | 37799 ft | 391 kts | 278° |
| 2026-05-06 21:06 | 29.69672 | -96.95770 | 37806 ft | 390 kts | 278° |
| 2026-05-06 21:06 | 29.71045 | -97.01792 | 37817 ft | 390 kts | 278° |
| 2026-05-06 21:07 | 29.72410 | -97.07826 | 37825 ft | 390 kts | 278° |
| 2026-05-06 21:07 | 29.73772 | -97.13871 | 37830 ft | 389 kts | 278° |
| 2026-05-06 21:08 | 29.75123 | -97.19880 | 37839 ft | 389 kts | 278° |
| 2026-05-06 21:08 | 29.76472 | -97.25897 | 37849 ft | 388 kts | 278° |
| 2026-05-06 21:09 | 29.77815 | -97.31903 | 37857 ft | 388 kts | 278° |
| 2026-05-06 21:09 | 29.79162 | -97.37937 | 37858 ft | 387 kts | 277° |
| 2026-05-06 21:10 | 29.80497 | -97.43932 | 37868 ft | 387 kts | 277° |
| 2026-05-06 21:10 | 29.81831 | -97.49935 | 37874 ft | 387 kts | 277° |
| 2026-05-06 21:11 | 29.83161 | -97.55934 | 37889 ft | 386 kts | 277° |
| 2026-05-06 21:11 | 29.84483 | -97.61915 | 37898 ft | 386 kts | 277° |
| 2026-05-06 21:12 | 29.85803 | -97.67896 | 37914 ft | 385 kts | 277° |
| 2026-05-06 21:12 | 29.87117 | -97.73866 | 37922 ft | 385 kts | 277° |
| 2026-05-06 21:13 | 29.88430 | -97.79841 | 37929 ft | 385 kts | 277° |
| 2026-05-06 21:13 | 29.89745 | -97.85842 | 37928 ft | 385 kts | 277° |
| 2026-05-06 21:14 | 29.90885 | -97.91837 | 37926 ft | 382 kts | 275° |
| 2026-05-06 21:14 | 29.91893 | -97.97814 | 37922 ft | 382 kts | 274° |
| 2026-05-06 21:15 | 29.92916 | -98.03837 | 37923 ft | 382 kts | 275° |
| 2026-05-06 21:15 | 29.93950 | -98.09843 | 37914 ft | 383 kts | 275° |
| 2026-05-06 21:16 | 29.94995 | -98.15881 | 37918 ft | 383 kts | 275° |
| 2026-05-06 21:16 | 29.96032 | -98.21877 | 37902 ft | 383 kts | 275° |
| 2026-05-06 21:17 | 29.97072 | -98.27901 | 37912 ft | 382 kts | 274° |
| 2026-05-06 21:17 | 29.98104 | -98.33902 | 37911 ft | 383 kts | 274° |
| 2026-05-06 21:18 | 29.99134 | -98.39912 | 37910 ft | 383 kts | 274° |
| 2026-05-06 21:18 | 30.00171 | -98.45978 | 37914 ft | 383 kts | 274° |
| 2026-05-06 21:19 | 30.01197 | -98.51990 | 37918 ft | 383 kts | 274° |
| 2026-05-06 21:19 | 30.02224 | -98.58033 | 37928 ft | 383 kts | 274° |
| 2026-05-06 21:20 | 30.03243 | -98.64042 | 37922 ft | 383 kts | 274° |
| 2026-05-06 21:20 | 30.04261 | -98.70067 | 37914 ft | 383 kts | 274° |
| 2026-05-06 21:21 | 30.05280 | -98.76115 | 37935 ft | 383 kts | 274° |
| 2026-05-06 21:21 | 30.06120 | -98.81112 | 37948 ft | 383 kts | 274° |
| 2026-05-06 21:22 | 30.07303 | -98.88166 | 37952 ft | 383 kts | 274° |
| 2026-05-06 21:22 | 30.08309 | -98.94187 | 37959 ft | 383 kts | 274° |
| 2026-05-06 21:23 | 30.09314 | -99.00220 | 37961 ft | 383 kts | 274° |
| 2026-05-06 21:23 | 30.10152 | -99.05268 | 37968 ft | 383 kts | 274° |
| 2026-05-06 21:24 | 30.11152 | -99.11300 | 37963 ft | 383 kts | 274° |
| 2026-05-06 21:24 | 30.12440 | -99.17307 | 37955 ft | 386 kts | 277° |
| 2026-05-06 21:25 | 30.13857 | -99.23274 | 37957 ft | 386 kts | 277° |
| 2026-05-06 21:25 | 30.15282 | -99.29293 | 37950 ft | 386 kts | 277° |
| 2026-05-06 21:26 | 30.16682 | -99.35270 | 37944 ft | 386 kts | 277° |
| 2026-05-06 21:26 | 30.18070 | -99.41237 | 37932 ft | 386 kts | 277° |
| 2026-05-06 21:27 | 30.19455 | -99.47219 | 37943 ft | 385 kts | 277° |
| 2026-05-06 21:27 | 30.20834 | -99.53187 | 37940 ft | 385 kts | 276° |
| 2026-05-06 21:28 | 30.22211 | -99.59161 | 37946 ft | 384 kts | 276° |
| 2026-05-06 21:28 | 30.23587 | -99.65142 | 37954 ft | 384 kts | 276° |
| 2026-05-06 21:29 | 30.24962 | -99.71133 | 37959 ft | 384 kts | 276° |
| 2026-05-06 21:29 | 30.26326 | -99.77091 | 37965 ft | 383 kts | 276° |
| 2026-05-06 21:30 | 30.27683 | -99.83030 | 37964 ft | 383 kts | 276° |
| 2026-05-06 21:30 | 30.29039 | -99.88983 | 37963 ft | 383 kts | 276° |
| 2026-05-06 21:31 | 30.30401 | -99.94971 | 37954 ft | 383 kts | 276° |
| 2026-05-06 21:31 | 30.31746 | -100.00896 | 37942 ft | 383 kts | 276° |
| 2026-05-06 21:32 | 30.33102 | -100.06884 | 37941 ft | 382 kts | 276° |
| 2026-05-06 21:32 | 30.35116 | -100.15805 | 37924 ft | 382 kts | 276° |
| 2026-05-06 21:33 | 30.36454 | -100.21749 | 37925 ft | 381 kts | 276° |
| 2026-05-06 21:33 | 30.37785 | -100.27674 | 37921 ft | 381 kts | 276° |
| 2026-05-06 21:34 | 30.39110 | -100.33590 | 37933 ft | 380 kts | 276° |
| 2026-05-06 21:34 | 30.40442 | -100.39545 | 37958 ft | 379 kts | 276° |
| 2026-05-06 21:35 | 30.41759 | -100.45452 | 37969 ft | 379 kts | 276° |
| 2026-05-06 21:35 | 30.43073 | -100.51353 | 37990 ft | 378 kts | 276° |
| 2026-05-06 21:36 | 30.44380 | -100.57241 | 38002 ft | 378 kts | 276° |
| 2026-05-06 21:36 | 30.45685 | -100.63131 | 38012 ft | 377 kts | 276° |
| 2026-05-06 21:37 | 30.46991 | -100.69042 | 38020 ft | 377 kts | 276° |
| 2026-05-06 21:37 | 30.48281 | -100.74891 | 38019 ft | 377 kts | 276° |
| 2026-05-06 21:38 | 30.49579 | -100.80794 | 37999 ft | 377 kts | 276° |
| 2026-05-06 21:38 | 30.50872 | -100.86683 | 37982 ft | 377 kts | 275° |
| 2026-05-06 21:39 | 30.52167 | -100.92600 | 37962 ft | 377 kts | 275° |
| 2026-05-06 21:39 | 30.53452 | -100.98478 | 37951 ft | 377 kts | 275° |
| 2026-05-06 21:40 | 30.54734 | -101.04360 | 37957 ft | 377 kts | 275° |
| 2026-05-06 21:40 | 30.56013 | -101.10244 | 37975 ft | 377 kts | 275° |
| 2026-05-06 21:41 | 30.57292 | -101.16139 | 37993 ft | 377 kts | 275° |
| 2026-05-06 21:41 | 30.58576 | -101.22069 | 37993 ft | 377 kts | 275° |
| 2026-05-06 21:42 | 30.59849 | -101.27965 | 37994 ft | 377 kts | 275° |
| 2026-05-06 21:42 | 30.61120 | -101.33865 | 37980 ft | 377 kts | 275° |
| 2026-05-06 21:43 | 30.62540 | -101.39757 | 37975 ft | 382 kts | 278° |
| 2026-05-06 21:43 | 30.64283 | -101.45623 | 37946 ft | 383 kts | 279° |
| 2026-05-06 21:44 | 30.66040 | -101.51452 | 37932 ft | 383 kts | 279° |
| 2026-05-06 21:44 | 30.67778 | -101.57299 | 37895 ft | 383 kts | 279° |
| 2026-05-06 21:45 | 30.69495 | -101.63133 | 37874 ft | 383 kts | 278° |
| 2026-05-06 21:45 | 30.71211 | -101.69000 | 37884 ft | 383 kts | 278° |
| 2026-05-06 21:46 | 30.72914 | -101.74836 | 37880 ft | 382 kts | 278° |
| 2026-05-06 21:46 | 30.74629 | -101.80728 | 37869 ft | 383 kts | 278° |
| 2026-05-06 21:47 | 30.76326 | -101.86566 | 37867 ft | 383 kts | 278° |
| 2026-05-06 21:47 | 30.78031 | -101.92444 | 37852 ft | 383 kts | 278° |
| 2026-05-06 21:48 | 30.79729 | -101.98305 | 37855 ft | 382 kts | 278° |
| 2026-05-06 21:48 | 30.81416 | -102.04143 | 37857 ft | 382 kts | 278° |
| 2026-05-06 21:49 | 30.83101 | -102.09983 | 37852 ft | 381 kts | 278° |
| 2026-05-06 21:49 | 30.84784 | -102.15827 | 37858 ft | 380 kts | 278° |
| 2026-05-06 21:50 | 30.86456 | -102.21649 | 37853 ft | 380 kts | 278° |
| 2026-05-06 21:50 | 30.88128 | -102.27477 | 37846 ft | 379 kts | 278° |
| 2026-05-06 21:51 | 30.89796 | -102.33304 | 37845 ft | 379 kts | 278° |
| 2026-05-06 21:51 | 30.91457 | -102.39119 | 37851 ft | 378 kts | 278° |
| 2026-05-06 21:52 | 30.93119 | -102.44948 | 37847 ft | 378 kts | 278° |
| 2026-05-06 21:52 | 30.94767 | -102.50738 | 37860 ft | 377 kts | 278° |
| 2026-05-06 21:53 | 30.96412 | -102.56529 | 37884 ft | 377 kts | 277° |
| 2026-05-06 21:53 | 30.98052 | -102.62314 | 37906 ft | 377 kts | 277° |
| 2026-05-06 21:54 | 30.99706 | -102.68159 | 37931 ft | 377 kts | 277° |
| 2026-05-06 21:54 | 31.01338 | -102.73938 | 37951 ft | 377 kts | 277° |
| 2026-05-06 21:55 | 31.02980 | -102.79762 | 37966 ft | 377 kts | 277° |
| 2026-05-06 21:55 | 31.04604 | -102.85536 | 37979 ft | 376 kts | 277° |
| 2026-05-06 21:56 | 31.06232 | -102.91334 | 37970 ft | 376 kts | 277° |
| 2026-05-06 21:56 | 31.07866 | -102.97164 | 37956 ft | 376 kts | 277° |
| 2026-05-06 21:57 | 31.09479 | -103.02926 | 37935 ft | 375 kts | 277° |
| 2026-05-06 21:57 | 31.11091 | -103.08701 | 37910 ft | 374 kts | 277° |
| 2026-05-06 21:58 | 31.12696 | -103.14460 | 37876 ft | 373 kts | 277° |
| 2026-05-06 21:58 | 31.14304 | -103.20243 | 37843 ft | 373 kts | 277° |
| 2026-05-06 21:59 | 31.15900 | -103.25995 | 37845 ft | 372 kts | 277° |
| 2026-05-06 21:59 | 31.17483 | -103.31708 | 37865 ft | 371 kts | 277° |
| 2026-05-06 22:00 | 31.19076 | -103.37471 | 37877 ft | 371 kts | 277° |
| 2026-05-06 22:00 | 31.20655 | -103.43192 | 37892 ft | 371 kts | 277° |
| 2026-05-06 22:01 | 31.22230 | -103.48918 | 37911 ft | 373 kts | 277° |
| 2026-05-06 22:01 | 31.23822 | -103.54716 | 37916 ft | 374 kts | 277° |
| 2026-05-06 22:02 | 31.25413 | -103.60515 | 37911 ft | 375 kts | 277° |
| 2026-05-06 22:02 | 31.27004 | -103.66326 | 37903 ft | 376 kts | 277° |
| 2026-05-06 22:03 | 31.28597 | -103.72150 | 37892 ft | 376 kts | 277° |
| 2026-05-06 22:03 | 31.30184 | -103.77970 | 37873 ft | 377 kts | 277° |
| 2026-05-06 22:04 | 31.31772 | -103.83805 | 37860 ft | 377 kts | 277° |
| 2026-05-06 22:04 | 31.33100 | -103.88690 | 37843 ft | 377 kts | 277° |
| 2026-05-06 22:05 | 31.34683 | -103.94527 | 37834 ft | 377 kts | 277° |
| 2026-05-06 22:05 | 31.36270 | -104.00392 | 37840 ft | 377 kts | 277° |
| 2026-05-06 22:06 | 31.37847 | -104.06235 | 37845 ft | 378 kts | 277° |
| 2026-05-06 22:06 | 31.39438 | -104.12137 | 37851 ft | 379 kts | 277° |
| 2026-05-06 22:07 | 31.41019 | -104.18017 | 37852 ft | 379 kts | 277° |
| 2026-05-06 22:07 | 31.42599 | -104.23900 | 37858 ft | 379 kts | 277° |
| 2026-05-06 22:08 | 31.44171 | -104.29768 | 37857 ft | 379 kts | 277° |
| 2026-05-06 22:08 | 31.45744 | -104.35650 | 37860 ft | 379 kts | 277° |
| 2026-05-06 22:09 | 31.47323 | -104.41569 | 37857 ft | 379 kts | 277° |
| 2026-05-06 22:09 | 31.48891 | -104.47458 | 37862 ft | 379 kts | 277° |
| 2026-05-06 22:10 | 31.50458 | -104.53355 | 37858 ft | 379 kts | 277° |
| 2026-05-06 22:10 | 31.52020 | -104.59249 | 37867 ft | 379 kts | 277° |
| 2026-05-06 22:11 | 31.53591 | -104.65184 | 37870 ft | 379 kts | 277° |
| 2026-05-06 22:11 | 31.55148 | -104.71083 | 37876 ft | 380 kts | 277° |
| 2026-05-06 22:12 | 31.56718 | -104.77042 | 37873 ft | 381 kts | 276° |
| 2026-05-06 22:12 | 31.58273 | -104.82954 | 37859 ft | 381 kts | 276° |
| 2026-05-06 22:13 | 31.59826 | -104.88867 | 37866 ft | 379 kts | 276° |
| 2026-05-06 22:13 | 31.61373 | -104.94772 | 37865 ft | 379 kts | 276° |
| 2026-05-06 22:14 | 31.62919 | -105.00690 | 37860 ft | 378 kts | 276° |
| 2026-05-06 22:14 | 31.64453 | -105.06574 | 37866 ft | 377 kts | 276° |
| 2026-05-06 22:15 | 31.65977 | -105.12432 | 37867 ft | 376 kts | 276° |
| 2026-05-06 22:15 | 31.67507 | -105.18323 | 37864 ft | 376 kts | 276° |
| 2026-05-06 22:16 | 31.69026 | -105.24189 | 37864 ft | 376 kts | 276° |
| 2026-05-06 22:16 | 31.70546 | -105.30069 | 37860 ft | 376 kts | 276° |
| 2026-05-06 22:17 | 31.72062 | -105.35941 | 37861 ft | 375 kts | 276° |
| 2026-05-06 22:17 | 31.73566 | -105.41781 | 37866 ft | 375 kts | 276° |
| 2026-05-06 22:18 | 31.75082 | -105.47682 | 37864 ft | 375 kts | 276° |
| 2026-05-06 22:18 | 31.76586 | -105.53548 | 37857 ft | 375 kts | 276° |
| 2026-05-06 22:19 | 31.78085 | -105.59407 | 37866 ft | 375 kts | 276° |
| 2026-05-06 22:19 | 31.79584 | -105.65278 | 37860 ft | 375 kts | 276° |
| 2026-05-06 22:20 | 31.81081 | -105.71153 | 37861 ft | 375 kts | 276° |
| 2026-05-06 22:20 | 31.82572 | -105.77017 | 37865 ft | 375 kts | 276° |
| 2026-05-06 22:21 | 31.84066 | -105.82904 | 37859 ft | 374 kts | 276° |
| 2026-05-06 22:21 | 31.85548 | -105.88759 | 37860 ft | 374 kts | 276° |
| 2026-05-06 22:22 | 31.87033 | -105.94637 | 37873 ft | 374 kts | 276° |
| 2026-05-06 22:22 | 31.88511 | -106.00502 | 37891 ft | 375 kts | 276° |
| 2026-05-06 22:23 | 31.89979 | -106.06341 | 37909 ft | 375 kts | 275° |
| 2026-05-06 22:23 | 31.91462 | -106.12249 | 37929 ft | 375 kts | 275° |
| 2026-05-06 22:24 | 31.92931 | -106.18113 | 37955 ft | 374 kts | 275° |
| 2026-05-06 22:24 | 31.94401 | -106.23990 | 37984 ft | 374 kts | 275° |
| 2026-05-06 22:25 | 31.96007 | -106.29835 | 37996 ft | 378 kts | 278° |
| 2026-05-06 22:25 | 31.97894 | -106.35626 | 37994 ft | 379 kts | 279° |
| 2026-05-06 22:26 | 31.99800 | -106.41405 | 37988 ft | 379 kts | 279° |
| 2026-05-06 22:26 | 32.01694 | -106.47201 | 37962 ft | 379 kts | 279° |
| 2026-05-06 22:27 | 32.03573 | -106.52994 | 37967 ft | 380 kts | 280° |
| 2026-05-06 22:27 | 32.05455 | -106.58822 | 37980 ft | 380 kts | 279° |
| 2026-05-06 22:28 | 32.07340 | -106.64668 | 37971 ft | 380 kts | 279° |
| 2026-05-06 22:28 | 32.09210 | -106.70474 | 37965 ft | 379 kts | 279° |
| 2026-05-06 22:29 | 32.11073 | -106.76274 | 37967 ft | 378 kts | 279° |
| 2026-05-06 22:29 | 32.12941 | -106.82103 | 37997 ft | 378 kts | 279° |
| 2026-05-06 22:30 | 32.14793 | -106.87889 | 38026 ft | 377 kts | 279° |
| 2026-05-06 22:30 | 32.16638 | -106.93667 | 38039 ft | 377 kts | 279° |
| 2026-05-06 22:31 | 32.18490 | -106.99476 | 38046 ft | 376 kts | 279° |
| 2026-05-06 22:31 | 32.20326 | -107.05243 | 38024 ft | 376 kts | 279° |
| 2026-05-06 22:32 | 32.22158 | -107.11012 | 38016 ft | 376 kts | 278° |
| 2026-05-06 22:32 | 32.23990 | -107.16791 | 37978 ft | 376 kts | 278° |
| 2026-05-06 22:33 | 32.25830 | -107.22604 | 37943 ft | 376 kts | 278° |
| 2026-05-06 22:33 | 32.27656 | -107.28386 | 37916 ft | 377 kts | 278° |
| 2026-05-06 22:34 | 32.29495 | -107.34220 | 37903 ft | 377 kts | 278° |
| 2026-05-06 22:34 | 32.31317 | -107.40009 | 37938 ft | 378 kts | 278° |
| 2026-05-06 22:35 | 32.33151 | -107.45847 | 37964 ft | 379 kts | 278° |
| 2026-05-06 22:35 | 32.34978 | -107.51672 | 37995 ft | 379 kts | 278° |
| 2026-05-06 22:36 | 32.36817 | -107.57548 | 38017 ft | 379 kts | 278° |
| 2026-05-06 22:36 | 32.38642 | -107.63390 | 38030 ft | 380 kts | 278° |
| 2026-05-06 22:37 | 32.40471 | -107.69256 | 38029 ft | 381 kts | 278° |
| 2026-05-06 22:37 | 32.42309 | -107.75155 | 38028 ft | 380 kts | 278° |
| 2026-05-06 22:38 | 32.44133 | -107.81032 | 38004 ft | 381 kts | 277° |
| 2026-05-06 22:38 | 32.45959 | -107.86924 | 37976 ft | 381 kts | 277° |
| 2026-05-06 22:39 | 32.47780 | -107.92805 | 37983 ft | 381 kts | 277° |
| 2026-05-06 22:39 | 32.49615 | -107.98702 | 38019 ft | 383 kts | 279° |
| 2026-05-06 22:40 | 32.50758 | -108.01578 | 38031 ft | 396 kts | 286° |
| 2026-05-06 22:40 | 32.52193 | -108.04399 | 38075 ft | 398 kts | 287° |
| 2026-05-06 22:40 | 32.55084 | -108.09974 | 38105 ft | 397 kts | 287° |
| 2026-05-06 22:41 | 32.59394 | -108.18332 | 38099 ft | 396 kts | 287° |
| 2026-05-06 22:42 | 32.62247 | -108.23906 | 38102 ft | 394 kts | 287° |
| 2026-05-06 22:42 | 32.65085 | -108.29469 | 38082 ft | 393 kts | 287° |
| 2026-05-06 22:43 | 32.67904 | -108.35006 | 38052 ft | 391 kts | 287° |
| 2026-05-06 22:43 | 32.70721 | -108.40549 | 38023 ft | 392 kts | 287° |
| 2026-05-06 22:44 | 32.73516 | -108.46056 | 37983 ft | 392 kts | 287° |
| 2026-05-06 22:44 | 32.76339 | -108.51624 | 37954 ft | 391 kts | 287° |
| 2026-05-06 22:45 | 32.79136 | -108.57151 | 37931 ft | 392 kts | 287° |
| 2026-05-06 22:45 | 32.81942 | -108.62706 | 37912 ft | 394 kts | 287° |
| 2026-05-06 22:46 | 32.84773 | -108.68315 | 37930 ft | 394 kts | 287° |
| 2026-05-06 22:46 | 32.87588 | -108.73900 | 37925 ft | 394 kts | 287° |
| 2026-05-06 22:47 | 32.90408 | -108.79504 | 37925 ft | 394 kts | 287° |
| 2026-05-06 22:47 | 32.93214 | -108.85088 | 37932 ft | 394 kts | 287° |
| 2026-05-06 22:48 | 32.96021 | -108.90682 | 37922 ft | 394 kts | 287° |
| 2026-05-06 22:48 | 32.98830 | -108.96289 | 37918 ft | 394 kts | 287° |
| 2026-05-06 22:49 | 33.01175 | -109.00978 | 37911 ft | 394 kts | 287° |
| 2026-05-06 22:49 | 33.03963 | -109.06559 | 37914 ft | 393 kts | 287° |
| 2026-05-06 22:50 | 33.06750 | -109.12150 | 37916 ft | 394 kts | 287° |
| 2026-05-06 22:50 | 33.09558 | -109.17794 | 37910 ft | 395 kts | 287° |
| 2026-05-06 22:51 | 33.12357 | -109.23424 | 37924 ft | 396 kts | 287° |
| 2026-05-06 22:51 | 33.15167 | -109.29082 | 37914 ft | 397 kts | 288° |
| 2026-05-06 22:52 | 33.17991 | -109.34774 | 37928 ft | 400 kts | 288° |
| 2026-05-06 22:52 | 33.20830 | -109.40514 | 37910 ft | 401 kts | 287° |
| 2026-05-06 22:53 | 33.23656 | -109.46231 | 37909 ft | 399 kts | 288° |
| 2026-05-06 22:53 | 33.26460 | -109.51910 | 37911 ft | 396 kts | 287° |
| 2026-05-06 22:54 | 33.29237 | -109.57545 | 37925 ft | 393 kts | 287° |
| 2026-05-06 22:54 | 33.32002 | -109.63171 | 37943 ft | 391 kts | 287° |
| 2026-05-06 22:55 | 33.34746 | -109.68766 | 37931 ft | 391 kts | 287° |
| 2026-05-06 22:55 | 33.37503 | -109.74392 | 37940 ft | 391 kts | 287° |
| 2026-05-06 22:56 | 33.40246 | -109.80000 | 37942 ft | 392 kts | 288° |
| 2026-05-06 22:56 | 33.42998 | -109.85631 | 37953 ft | 394 kts | 288° |
| 2026-05-06 22:57 | 33.45765 | -109.91304 | 37951 ft | 396 kts | 288° |
| 2026-05-06 22:57 | 33.48547 | -109.97012 | 37949 ft | 398 kts | 288° |
| 2026-05-06 22:58 | 33.51368 | -110.02741 | 37950 ft | 401 kts | 289° |
| 2026-05-06 22:58 | 33.54314 | -110.08472 | 37955 ft | 402 kts | 289° |
| 2026-05-06 22:59 | 33.57262 | -110.14179 | 37957 ft | 403 kts | 289° |
| 2026-05-06 22:59 | 33.60205 | -110.19907 | 37951 ft | 403 kts | 289° |
| 2026-05-06 23:00 | 33.63129 | -110.25624 | 37947 ft | 403 kts | 289° |
| 2026-05-06 23:00 | 33.66041 | -110.31327 | 37948 ft | 401 kts | 289° |
| 2026-05-06 23:01 | 33.68950 | -110.37040 | 37920 ft | 401 kts | 289° |
| 2026-05-06 23:01 | 33.71861 | -110.42760 | 37943 ft | 399 kts | 289° |
| 2026-05-06 23:02 | 33.74727 | -110.48406 | 37951 ft | 396 kts | 289° |
| 2026-05-06 23:02 | 33.77583 | -110.54045 | 37956 ft | 395 kts | 289° |
| 2026-05-06 23:03 | 33.80449 | -110.59712 | 37957 ft | 396 kts | 289° |
| 2026-05-06 23:03 | 33.83320 | -110.65414 | 37971 ft | 404 kts | 289° |
| 2026-05-06 23:04 | 33.86273 | -110.71278 | 37953 ft | 410 kts | 290° |
| 2026-05-06 23:04 | 33.89228 | -110.77141 | 37956 ft | 411 kts | 290° |
| 2026-05-06 23:05 | 33.92188 | -110.83024 | 37957 ft | 413 kts | 290° |
| 2026-05-06 23:05 | 33.95175 | -110.88968 | 37966 ft | 414 kts | 290° |
| 2026-05-06 23:06 | 33.98146 | -110.94889 | 37955 ft | 412 kts | 290° |
| 2026-05-06 23:06 | 34.01099 | -111.00789 | 37965 ft | 412 kts | 290° |
| 2026-05-06 23:07 | 34.04055 | -111.06710 | 37996 ft | 412 kts | 291° |
| 2026-05-06 23:07 | 34.07014 | -111.12648 | 38027 ft | 414 kts | 291° |
| 2026-05-06 23:08 | 34.09994 | -111.18635 | 38030 ft | 414 kts | 291° |
| 2026-05-06 23:08 | 34.12948 | -111.24576 | 38098 ft | 413 kts | 291° |
| 2026-05-06 23:09 | 34.15903 | -111.30532 | 38108 ft | 414 kts | 291° |
| 2026-05-06 23:09 | 34.18862 | -111.36508 | 38112 ft | 416 kts | 292° |
| 2026-05-06 23:10 | 34.21825 | -111.42503 | 38102 ft | 417 kts | 292° |
| 2026-05-06 23:10 | 34.24816 | -111.48559 | 38095 ft | 418 kts | 292° |
| 2026-05-06 23:11 | 34.27790 | -111.54596 | 38071 ft | 419 kts | 292° |
| 2026-05-06 23:11 | 34.30770 | -111.60655 | 38047 ft | 420 kts | 292° |
| 2026-05-06 23:12 | 34.33763 | -111.66749 | 38010 ft | 421 kts | 292° |
| 2026-05-06 23:12 | 34.36748 | -111.72837 | 37966 ft | 422 kts | 293° |
| 2026-05-06 23:13 | 34.39759 | -111.78990 | 37975 ft | 423 kts | 294° |
| 2026-05-06 23:13 | 34.42759 | -111.85133 | 37967 ft | 425 kts | 294° |
| 2026-05-06 23:14 | 34.45773 | -111.91314 | 37953 ft | 427 kts | 294° |
| 2026-05-06 23:14 | 34.48784 | -111.97496 | 37939 ft | 428 kts | 294° |
| 2026-05-06 23:15 | 34.51707 | -112.03804 | 37945 ft | 426 kts | 291° |
| 2026-05-06 23:15 | 34.54385 | -112.10183 | 37998 ft | 425 kts | 291° |
| 2026-05-06 23:16 | 34.57049 | -112.16562 | 38017 ft | 427 kts | 291° |
| 2026-05-06 23:16 | 34.59763 | -112.23001 | 38055 ft | 428 kts | 292° |
| 2026-05-06 23:17 | 34.62504 | -112.29486 | 38079 ft | 430 kts | 292° |
| 2026-05-06 23:17 | 34.65231 | -112.35948 | 38092 ft | 431 kts | 292° |
| 2026-05-06 23:18 | 34.67957 | -112.42421 | 38091 ft | 432 kts | 292° |
| 2026-05-06 23:18 | 34.70690 | -112.48927 | 38096 ft | 433 kts | 292° |
| 2026-05-06 23:19 | 34.73422 | -112.55485 | 38061 ft | 434 kts | 292° |
| 2026-05-06 23:19 | 34.76121 | -112.62038 | 38044 ft | 435 kts | 293° |
| 2026-05-06 23:20 | 34.78810 | -112.68625 | 38000 ft | 436 kts | 293° |
| 2026-05-06 23:20 | 34.81481 | -112.75241 | 37986 ft | 437 kts | 293° |
| 2026-05-06 23:21 | 34.84144 | -112.81902 | 37951 ft | 438 kts | 293° |
| 2026-05-06 23:21 | 34.86795 | -112.88613 | 37961 ft | 439 kts | 293° |
| 2026-05-06 23:22 | 34.89166 | -112.95413 | 37961 ft | 437 kts | 284° |
| 2026-05-06 23:22 | 34.90751 | -113.02592 | 37968 ft | 438 kts | 283° |
| 2026-05-06 23:23 | 34.92352 | -113.09736 | 37950 ft | 439 kts | 284° |
| 2026-05-06 23:23 | 34.94089 | -113.16869 | 37962 ft | 440 kts | 285° |
| 2026-05-06 23:24 | 34.95872 | -113.24044 | 37938 ft | 441 kts | 285° |
| 2026-05-06 23:24 | 34.97648 | -113.31228 | 37451 ft | 449 kts | 285° |
| 2026-05-06 23:24 | 34.98615 | -113.34872 | 36861 ft | 448 kts | 292° |
| 2026-05-06 23:25 | 35.00173 | -113.38123 | 36227 ft | 449 kts | 307° |
| 2026-05-06 23:25 | 35.02389 | -113.40839 | 35571 ft | 450 kts | 318° |
| 2026-05-06 23:25 | 35.04784 | -113.43246 | 34825 ft | 452 kts | 320° |
| 2026-05-06 23:25 | 35.07253 | -113.45646 | 34023 ft | 455 kts | 320° |
| 2026-05-06 23:26 | 35.09748 | -113.48070 | 33072 ft | 457 kts | 321° |
| 2026-05-06 23:26 | 35.12198 | -113.50480 | 32217 ft | 457 kts | 321° |
| 2026-05-06 23:26 | 35.14649 | -113.52924 | 31650 ft | 451 kts | 321° |
| 2026-05-06 23:26 | 35.17068 | -113.55356 | 31028 ft | 447 kts | 321° |
| 2026-05-06 23:27 | 35.19459 | -113.57774 | 30446 ft | 442 kts | 322° |
| 2026-05-06 23:27 | 35.21824 | -113.60170 | 29837 ft | 438 kts | 322° |
| 2026-05-06 23:27 | 35.24140 | -113.62516 | 29172 ft | 433 kts | 322° |
| 2026-05-06 23:27 | 35.26452 | -113.64856 | 28572 ft | 427 kts | 322° |
| 2026-05-06 23:28 | 35.28731 | -113.67166 | 27974 ft | 422 kts | 322° |
| 2026-05-06 23:28 | 35.30955 | -113.69420 | 27383 ft | 417 kts | 322° |
| 2026-05-06 23:28 | 35.33193 | -113.71691 | 26775 ft | 413 kts | 322° |
| 2026-05-06 23:28 | 35.35400 | -113.73933 | 26189 ft | 410 kts | 322° |
| 2026-05-06 23:29 | 35.37564 | -113.76131 | 25598 ft | 406 kts | 322° |
| 2026-05-06 23:29 | 35.39744 | -113.78349 | 25034 ft | 403 kts | 322° |
| 2026-05-06 23:29 | 35.41897 | -113.80540 | 24467 ft | 400 kts | 322° |
| 2026-05-06 23:29 | 35.44015 | -113.82697 | 23889 ft | 398 kts | 322° |
| 2026-05-06 23:30 | 35.46147 | -113.84870 | 23235 ft | 396 kts | 322° |
| 2026-05-06 23:30 | 35.48255 | -113.87020 | 22600 ft | 392 kts | 322° |
| 2026-05-06 23:30 | 35.50349 | -113.89158 | 21998 ft | 388 kts | 322° |
| 2026-05-06 23:30 | 35.52387 | -113.91239 | 21430 ft | 384 kts | 322° |
| 2026-05-06 23:31 | 35.54443 | -113.93341 | 20833 ft | 380 kts | 322° |
| 2026-05-06 23:31 | 35.56471 | -113.95416 | 20268 ft | 377 kts | 322° |
| 2026-05-06 23:31 | 35.58460 | -113.97451 | 19712 ft | 374 kts | 322° |
| 2026-05-06 23:31 | 35.60462 | -113.99501 | 19153 ft | 371 kts | 322° |
| 2026-05-06 23:32 | 35.62418 | -114.01506 | 18599 ft | 368 kts | 322° |
| 2026-05-06 23:32 | 35.64387 | -114.03525 | 18037 ft | 366 kts | 322° |
| 2026-05-06 23:32 | 35.65682 | -114.04855 | 17623 ft | 364 kts | 322° |
| 2026-05-06 23:32 | 35.68259 | -114.07500 | 16848 ft | 360 kts | 322° |
| 2026-05-06 23:33 | 35.69536 | -114.08812 | 16462 ft | 358 kts | 322° |
| 2026-05-06 23:33 | 35.71423 | -114.10752 | 16251 ft | 345 kts | 322° |
| 2026-05-06 23:33 | 35.73230 | -114.12615 | 16073 ft | 332 kts | 322° |
| 2026-05-06 23:33 | 35.74965 | -114.14404 | 15947 ft | 319 kts | 321° |
| 2026-05-06 23:34 | 35.76423 | -114.16421 | 15684 ft | 316 kts | 304° |
| 2026-05-06 23:34 | 35.77486 | -114.18776 | 15436 ft | 313 kts | 301° |
| 2026-05-06 23:34 | 35.78489 | -114.21127 | 15134 ft | 314 kts | 300° |
| 2026-05-06 23:34 | 35.79509 | -114.23515 | 14830 ft | 315 kts | 301° |
| 2026-05-06 23:35 | 35.80548 | -114.25912 | 14512 ft | 315 kts | 301° |
| 2026-05-06 23:35 | 35.81587 | -114.28281 | 14201 ft | 313 kts | 301° |
| 2026-05-06 23:35 | 35.82629 | -114.30648 | 13903 ft | 313 kts | 301° |
| 2026-05-06 23:35 | 35.83659 | -114.32981 | 13574 ft | 311 kts | 302° |
| 2026-05-06 23:36 | 35.84836 | -114.35212 | 13247 ft | 307 kts | 309° |
| 2026-05-06 23:36 | 35.86136 | -114.37282 | 12933 ft | 304 kts | 311° |
| 2026-05-06 23:36 | 35.87440 | -114.39293 | 12641 ft | 302 kts | 311° |
| 2026-05-06 23:36 | 35.88756 | -114.41336 | 12338 ft | 300 kts | 311° |
| 2026-05-06 23:37 | 35.90028 | -114.43335 | 12046 ft | 298 kts | 310° |
| 2026-05-06 23:37 | 35.91303 | -114.45357 | 11771 ft | 296 kts | 310° |
| 2026-05-06 23:37 | 35.92565 | -114.47374 | 11480 ft | 294 kts | 310° |
| 2026-05-06 23:37 | 35.93799 | -114.49353 | 11191 ft | 292 kts | 310° |
| 2026-05-06 23:38 | 35.95040 | -114.51347 | 10921 ft | 290 kts | 310° |
| 2026-05-06 23:38 | 35.96257 | -114.53306 | 10653 ft | 289 kts | 309° |
| 2026-05-06 23:38 | 35.97475 | -114.55280 | 10377 ft | 287 kts | 309° |
| 2026-05-06 23:38 | 35.98682 | -114.57241 | 10105 ft | 284 kts | 309° |
| 2026-05-06 23:39 | 35.99857 | -114.59151 | 9830 ft | 280 kts | 309° |
| 2026-05-06 23:39 | 36.01034 | -114.61062 | 9525 ft | 276 kts | 309° |
| 2026-05-06 23:39 | 36.02189 | -114.62942 | 9256 ft | 272 kts | 309° |
| 2026-05-06 23:39 | 36.03312 | -114.64770 | 8935 ft | 266 kts | 310° |
| 2026-05-06 23:40 | 36.04374 | -114.66636 | 8693 ft | 263 kts | 305° |
| 2026-05-06 23:40 | 36.05312 | -114.68551 | 8491 ft | 258 kts | 304° |
| 2026-05-06 23:40 | 36.06218 | -114.70429 | 8237 ft | 255 kts | 304° |
| 2026-05-06 23:40 | 36.07030 | -114.72375 | 7977 ft | 257 kts | 289° |
| 2026-05-06 23:41 | 36.07356 | -114.74537 | 7682 ft | 253 kts | 279° |
| 2026-05-06 23:41 | 36.07460 | -114.76691 | 7387 ft | 247 kts | 273° |
| 2026-05-06 23:41 | 36.07453 | -114.78767 | 7145 ft | 239 kts | 271° |
| 2026-05-06 23:41 | 36.07434 | -114.80834 | 6874 ft | 239 kts | 271° |
| 2026-05-06 23:42 | 36.07424 | -114.82880 | 6586 ft | 241 kts | 271° |
| 2026-05-06 23:42 | 36.07418 | -114.84940 | 6381 ft | 236 kts | 271° |
| 2026-05-06 23:42 | 36.07412 | -114.86960 | 6058 ft | 233 kts | 271° |
| 2026-05-06 23:42 | 36.07407 | -114.88946 | 5765 ft | 227 kts | 271° |
| 2026-05-06 23:43 | 36.07401 | -114.90876 | 5474 ft | 221 kts | 271° |
| 2026-05-06 23:43 | 36.07396 | -114.92739 | 5171 ft | 216 kts | 271° |
| 2026-05-06 23:43 | 36.07393 | -114.94579 | 4885 ft | 210 kts | 270° |
| 2026-05-06 23:43 | 36.07389 | -114.96368 | 4608 ft | 205 kts | 270° |
| 2026-05-06 23:44 | 36.07385 | -114.98089 | 4355 ft | 200 kts | 270° |
| 2026-05-06 23:44 | 36.07382 | -114.99804 | 4101 ft | 197 kts | 270° |
| 2026-05-06 23:44 | 36.07380 | -115.01500 | 3851 ft | 196 kts | 270° |
| 2026-05-06 23:44 | 36.07377 | -115.03149 | 3591 ft | 191 kts | 270° |
| 2026-05-06 23:45 | 36.07375 | -115.04755 | 3358 ft | 181 kts | 270° |
| 2026-05-06 23:45 | 36.07373 | -115.06307 | 3097 ft | 176 kts | 270° |
| 2026-05-06 23:45 | 36.07371 | -115.07751 | 2902 ft | 160 kts | 269° |
| 2026-05-06 23:45 | 36.07370 | -115.09079 | 2644 ft | 149 kts | 268° |
| 2026-05-06 23:46 | 36.07368 | -115.10344 | 2472 ft | 146 kts | 269° |
| 2026-05-06 23:46 | 36.07374 | -115.11606 | 2307 ft | 150 kts | 269° |
| 2026-05-06 23:46 | 36.07365 | -115.12875 | 2088 ft | 147 kts | 267° |
| 2026-05-06 23:46 | 36.07361 | -115.13976 | 2100 ft | 99 kts | 270° |
| 2026-05-06 23:47 | 36.07445 | -115.14544 | 2120 ft | 37 kts | 298° |
| 2026-05-06 23:47 | 36.07475 | -115.14611 | 2123 ft | 2 kts | 301° |
| 2026-05-06 23:47 | 36.07478 | -115.14617 | 2124 ft | 0 kts | 301° |
| 2026-05-06 23:48 | 36.07478 | -115.14619 | 2124 ft | 2 kts | 303° |
| 2026-05-06 23:48 | 36.07522 | -115.14648 | 2128 ft | 12 kts | 348° |
| 2026-05-06 23:49 | 36.07624 | -115.14655 | 2131 ft | 15 kts | 358° |
| 2026-05-06 23:49 | 36.07733 | -115.14661 | 2128 ft | 16 kts | 353° |
| 2026-05-06 23:49 | 36.07830 | -115.14723 | 2129 ft | 15 kts | 336° |
| 2026-05-06 23:49 | 36.07930 | -115.14751 | 2129 ft | 15 kts | 330° |
| 2026-05-06 23:50 | 36.08020 | -115.14807 | 2128 ft | 14 kts | 337° |
| 2026-05-06 23:50 | 36.08192 | -115.14901 | 2130 ft | 13 kts | 335° |
| 2026-05-06 23:50 | 36.08269 | -115.14955 | 2126 ft | 11 kts | 326° |
| 2026-05-06 23:51 | 36.08288 | -115.15018 | 2125 ft | 7 kts | 251° |
| 2026-05-06 23:51 | 36.08285 | -115.15037 | 2127 ft | 0 kts | 260° |